sensor_id;sensor_type;location;lat;lon;timestamp;pressure;altitude;pressure_sealevel;temperature;humidity
46955;BME280;32708;51.212;6.788;2023-04-07T00:01:04;100748.38;;;18.63;79.66
46955;BME280;32708;51.212;6.788;2023-04-07T00:03:31;100751.63;;;17.31;82.85
46955;BME280;32708;51.212;6.788;2023-04-07T00:05:57;100749.97;;;17.88;84.90
46955;BME280;32708;51.212;6.788;2023-04-07T00:08:23;100746.50;;;18.67;81.42
46955;BME280;32708;51.212;6.788;2023-04-07T00:10:50;100756.97;;;17.63;84.95
46955;BME280;32708;51.212;6.788;2023-04-07T00:13:19;100741.91;;;18.52;80.42
46955;BME280;32708;51.212;6.788;2023-04-07T00:15:46;100759.34;;;17.84;82.30
46955;BME280;32708;51.212;6.788;2023-04-07T00:18:12;100752.63;;;18.57;78.97
46955;BME280;32708;51.212;6.788;2023-04-07T00:20:38;100745.28;;;18.15;80.47
46955;BME280;32708;51.212;6.788;2023-04-07T00:23:05;100749.16;;;18.90;76.84
46955;BME280;32708;51.212;6.788;2023-04-07T00:25:31;100757.59;;;18.45;79.53
46955;BME280;32708;51.212;6.788;2023-04-07T00:27:58;100752.97;;;18.52;79.14
46955;BME280;32708;51.212;6.788;2023-04-07T00:30:25;100742.34;;;18.05;79.20
46955;BME280;32708;51.212;6.788;2023-04-07T00:32:54;100753.13;;;18.13;79.12
46955;BME280;32708;51.212;6.788;2023-04-07T00:35:22;100750.72;;;18.88;77.84
46955;BME280;32708;51.212;6.788;2023-04-07T00:37:48;100743.63;;;18.90;77.41
46955;BME280;32708;51.212;6.788;2023-04-07T00:40:22;100735.56;;;18.78;78.44
46955;BME280;32708;51.212;6.788;2023-04-07T00:42:52;100739.84;;;19.02;77.60
46955;BME280;32708;51.212;6.788;2023-04-07T00:45:19;100734.94;;;18.62;77.25
46955;BME280;32708;51.212;6.788;2023-04-07T00:47:45;100741.88;;;19.42;76.13
46955;BME280;32708;51.212;6.788;2023-04-07T00:50:12;100725.66;;;19.78;74.10
46955;BME280;32708;51.212;6.788;2023-04-07T00:52:39;100735.03;;;19.29;75.83
46955;BME280;32708;51.212;6.788;2023-04-07T00:55:06;100740.50;;;19.22;76.13
46955;BME280;32708;51.212;6.788;2023-04-07T00:57:33;100721.13;;;19.25;75.08
46955;BME280;32708;51.212;6.788;2023-04-07T01:00:00;100740.84;;;19.54;74.86
46955;BME280;32708;51.212;6.788;2023-04-07T01:02:42;100740.09;;;19.57;74.48
46955;BME280;32708;51.212;6.788;2023-04-07T01:05:26;100729.91;;;19.65;73.89
46955;BME280;32708;51.212;6.788;2023-04-07T01:08:23;100728.94;;;19.16;75.15
46955;BME280;32708;51.212;6.788;2023-04-07T01:11:03;100721.81;;;18.85;77.10
46955;BME280;32708;51.212;6.788;2023-04-07T01:13:51;100727.69;;;19.47;75.19
46955;BME280;32708;51.212;6.788;2023-04-07T01:16:35;100734.69;;;17.95;80.20
46955;BME280;32708;51.212;6.788;2023-04-07T01:19:36;100717.84;;;19.50;75.18
46955;BME280;32708;51.212;6.788;2023-04-07T01:22:15;100725.84;;;19.99;71.31
46955;BME280;32708;51.212;6.788;2023-04-07T01:30:34;100730.28;;;20.08;73.39
46955;BME280;32708;51.212;6.788;2023-04-07T01:33:03;100722.28;;;19.99;71.92
46955;BME280;32708;51.212;6.788;2023-04-07T01:35:34;100734.59;;;19.61;75.60
46955;BME280;32708;51.212;6.788;2023-04-07T01:38:04;100723.66;;;19.75;74.42
46955;BME280;32708;51.212;6.788;2023-04-07T01:40:34;100718.13;;;19.75;71.50
46955;BME280;32708;51.212;6.788;2023-04-07T01:43:02;100717.63;;;20.10;73.59
46955;BME280;32708;51.212;6.788;2023-04-07T01:45:31;100724.81;;;20.18;72.39
46955;BME280;32708;51.212;6.788;2023-04-07T01:47:59;100727.28;;;19.79;73.83
46955;BME280;32708;51.212;6.788;2023-04-07T01:50:27;100728.31;;;20.12;74.37
46955;BME280;32708;51.212;6.788;2023-04-07T01:52:56;100721.34;;;19.43;74.23
46955;BME280;32708;51.212;6.788;2023-04-07T01:55:26;100733.16;;;19.74;75.70
46955;BME280;32708;51.212;6.788;2023-04-07T01:58:07;100730.06;;;19.12;79.21
46955;BME280;32708;51.212;6.788;2023-04-07T02:00:36;100725.00;;;19.17;79.32
46955;BME280;32708;51.212;6.788;2023-04-07T02:03:23;100732.22;;;18.39;82.49
46955;BME280;32708;51.212;6.788;2023-04-07T02:06:06;100733.19;;;18.24;81.89
46955;BME280;32708;51.212;6.788;2023-04-07T02:08:41;100726.84;;;18.50;83.54
46955;BME280;32708;51.212;6.788;2023-04-07T02:11:13;100732.47;;;18.57;83.69
46955;BME280;32708;51.212;6.788;2023-04-07T02:13:45;100730.78;;;19.05;81.44
46955;BME280;32708;51.212;6.788;2023-04-07T02:16:16;100730.78;;;18.49;83.18
46955;BME280;32708;51.212;6.788;2023-04-07T02:18:46;100742.16;;;18.17;85.81
46955;BME280;32708;51.212;6.788;2023-04-07T02:21:15;100735.13;;;18.73;83.92
46955;BME280;32708;51.212;6.788;2023-04-07T02:23:45;100732.75;;;17.99;88.54
46955;BME280;32708;51.212;6.788;2023-04-07T02:26:12;100735.09;;;18.46;87.42
46955;BME280;32708;51.212;6.788;2023-04-07T02:28:38;100729.97;;;18.48;87.00
46955;BME280;32708;51.212;6.788;2023-04-07T02:31:04;100738.19;;;18.97;85.98
46955;BME280;32708;51.212;6.788;2023-04-07T02:33:31;100727.81;;;19.21;81.18
46955;BME280;32708;51.212;6.788;2023-04-07T02:35:58;100737.34;;;18.37;84.89
46955;BME280;32708;51.212;6.788;2023-04-07T02:38:24;100731.31;;;18.31;87.86
46955;BME280;32708;51.212;6.788;2023-04-07T02:40:50;100743.94;;;18.06;91.02
46955;BME280;32708;51.212;6.788;2023-04-07T02:43:18;100742.69;;;19.09;84.69
46955;BME280;32708;51.212;6.788;2023-04-07T02:45:45;100720.06;;;18.43;87.92
46955;BME280;32708;51.212;6.788;2023-04-07T02:48:12;100739.91;;;19.43;82.27
46955;BME280;32708;51.212;6.788;2023-04-07T02:50:42;100741.00;;;18.45;88.14
46955;BME280;32708;51.212;6.788;2023-04-07T02:53:08;100747.94;;;18.35;88.35
46955;BME280;32708;51.212;6.788;2023-04-07T02:55:35;100743.91;;;18.29;88.65
46955;BME280;32708;51.212;6.788;2023-04-07T02:58:01;100749.88;;;18.31;87.79
46955;BME280;32708;51.212;6.788;2023-04-07T03:00:39;100755.50;;;18.38;87.72
46955;BME280;32708;51.212;6.788;2023-04-07T03:03:11;100751.47;;;18.58;87.14
46955;BME280;32708;51.212;6.788;2023-04-07T03:05:40;100758.72;;;17.71;90.36
46955;BME280;32708;51.212;6.788;2023-04-07T03:08:08;100754.78;;;18.67;86.42
46955;BME280;32708;51.212;6.788;2023-04-07T03:10:34;100756.69;;;18.14;88.86
46955;BME280;32708;51.212;6.788;2023-04-07T03:13:01;100767.59;;;17.61;93.21
46955;BME280;32708;51.212;6.788;2023-04-07T03:15:31;100751.94;;;17.88;89.52
46955;BME280;32708;51.212;6.788;2023-04-07T03:17:58;100758.41;;;17.57;90.11
46955;BME280;32708;51.212;6.788;2023-04-07T03:20:24;100749.28;;;18.18;88.99
46955;BME280;32708;51.212;6.788;2023-04-07T03:22:51;100753.00;;;18.06;88.12
46955;BME280;32708;51.212;6.788;2023-04-07T03:25:25;100756.63;;;17.65;89.89
46955;BME280;32708;51.212;6.788;2023-04-07T03:27:53;100757.66;;;17.37;93.15
46955;BME280;32708;51.212;6.788;2023-04-07T03:30:20;100757.19;;;17.54;90.15
46955;BME280;32708;51.212;6.788;2023-04-07T03:32:46;100758.72;;;18.17;86.90
46955;BME280;32708;51.212;6.788;2023-04-07T03:35:13;100760.88;;;17.62;90.30
46955;BME280;32708;51.212;6.788;2023-04-07T03:37:39;100760.09;;;17.61;88.52
46955;BME280;32708;51.212;6.788;2023-04-07T03:40:11;100761.94;;;18.46;86.44
46955;BME280;32708;51.212;6.788;2023-04-07T03:42:38;100756.91;;;18.28;86.42
46955;BME280;32708;51.212;6.788;2023-04-07T03:45:07;100764.25;;;17.71;89.42
46955;BME280;32708;51.212;6.788;2023-04-07T03:47:36;100769.41;;;17.53;89.09
46955;BME280;32708;51.212;6.788;2023-04-07T03:50:05;100772.47;;;17.48;92.33
46955;BME280;32708;51.212;6.788;2023-04-07T03:52:37;100773.56;;;17.24;92.21
46955;BME280;32708;51.212;6.788;2023-04-07T03:55:12;100771.81;;;17.55;91.71
46955;BME280;32708;51.212;6.788;2023-04-07T03:57:40;100765.25;;;18.81;85.08
46955;BME280;32708;51.212;6.788;2023-04-07T04:00:07;100767.44;;;17.73;87.22
46955;BME280;32708;51.212;6.788;2023-04-07T04:02:42;100766.19;;;18.39;82.57
46955;BME280;32708;51.212;6.788;2023-04-07T04:05:11;100751.28;;;18.21;85.48
46955;BME280;32708;51.212;6.788;2023-04-07T04:07:38;100775.06;;;17.80;88.26
46955;BME280;32708;51.212;6.788;2023-04-07T04:10:07;100765.47;;;17.54;89.01
46955;BME280;32708;51.212;6.788;2023-04-07T04:12:39;100786.06;;;17.38;90.86
46955;BME280;32708;51.212;6.788;2023-04-07T04:15:09;100781.84;;;17.44;88.75
46955;BME280;32708;51.212;6.788;2023-04-07T04:17:36;100778.34;;;17.66;86.96
46955;BME280;32708;51.212;6.788;2023-04-07T04:20:05;100777.09;;;17.64;87.39
46955;BME280;32708;51.212;6.788;2023-04-07T04:22:41;100781.63;;;17.52;85.63
46955;BME280;32708;51.212;6.788;2023-04-07T04:25:08;100779.94;;;17.86;85.84
46955;BME280;32708;51.212;6.788;2023-04-07T04:27:35;100775.50;;;17.63;86.82
46955;BME280;32708;51.212;6.788;2023-04-07T04:30:07;100768.91;;;17.28;87.33
46955;BME280;32708;51.212;6.788;2023-04-07T04:32:38;100783.44;;;17.45;86.38
46955;BME280;32708;51.212;6.788;2023-04-07T04:35:07;100794.69;;;17.75;84.58
46955;BME280;32708;51.212;6.788;2023-04-07T04:37:40;100794.06;;;17.23;88.46
46955;BME280;32708;51.212;6.788;2023-04-07T04:40:10;100793.81;;;17.32;88.46
46955;BME280;32708;51.212;6.788;2023-04-07T04:42:38;100796.72;;;16.34;94.13
46955;BME280;32708;51.212;6.788;2023-04-07T04:45:08;100799.72;;;16.60;93.13
46955;BME280;32708;51.212;6.788;2023-04-07T04:47:34;100800.00;;;17.25;91.63
46955;BME280;32708;51.212;6.788;2023-04-07T04:50:04;100788.53;;;17.23;88.44
46955;BME280;32708;51.212;6.788;2023-04-07T04:52:33;100800.31;;;16.85;89.78
46955;BME280;32708;51.212;6.788;2023-04-07T04:55:00;100798.13;;;17.29;89.64
46955;BME280;32708;51.212;6.788;2023-04-07T04:57:27;100805.00;;;17.58;86.84
46955;BME280;32708;51.212;6.788;2023-04-07T04:59:54;100809.94;;;16.75;89.39
46955;BME280;32708;51.212;6.788;2023-04-07T05:02:20;100802.03;;;17.28;87.64
46955;BME280;32708;51.212;6.788;2023-04-07T05:04:48;100810.81;;;17.34;87.96
46955;BME280;32708;51.212;6.788;2023-04-07T05:07:21;100795.81;;;16.61;89.86
46955;BME280;32708;51.212;6.788;2023-04-07T05:09:48;100800.50;;;16.76;90.45
46955;BME280;32708;51.212;6.788;2023-04-07T05:12:16;100813.06;;;17.48;85.32
46955;BME280;32708;51.212;6.788;2023-04-07T05:14:47;100807.34;;;17.18;85.60
46955;BME280;32708;51.212;6.788;2023-04-07T05:17:14;100797.16;;;17.41;86.92
46955;BME280;32708;51.212;6.788;2023-04-07T05:19:41;100825.16;;;16.69;91.14
46955;BME280;32708;51.212;6.788;2023-04-07T05:22:17;100824.97;;;17.32;87.54
46955;BME280;32708;51.212;6.788;2023-04-07T05:24:46;100811.13;;;17.29;85.09
46955;BME280;32708;51.212;6.788;2023-04-07T05:27:13;100824.06;;;17.44;86.76
46955;BME280;32708;51.212;6.788;2023-04-07T05:29:40;100831.47;;;17.79;87.58
46955;BME280;32708;51.212;6.788;2023-04-07T05:32:11;100826.31;;;17.39;86.62
46955;BME280;32708;51.212;6.788;2023-04-07T05:34:38;100818.25;;;17.30;85.18
46955;BME280;32708;51.212;6.788;2023-04-07T05:37:05;100825.78;;;17.33;85.64
46955;BME280;32708;51.212;6.788;2023-04-07T05:39:31;100828.97;;;17.54;86.10
46955;BME280;32708;51.212;6.788;2023-04-07T05:41:58;100828.59;;;17.56;85.69
46955;BME280;32708;51.212;6.788;2023-04-07T05:44:34;100819.47;;;17.52;84.44
46955;BME280;32708;51.212;6.788;2023-04-07T05:47:03;100811.03;;;18.06;83.36
46955;BME280;32708;51.212;6.788;2023-04-07T05:49:34;100832.75;;;17.08;85.65
46955;BME280;32708;51.212;6.788;2023-04-07T05:52:06;100841.97;;;17.15;85.58
46955;BME280;32708;51.212;6.788;2023-04-07T05:54:39;100833.69;;;17.54;83.46
46955;BME280;32708;51.212;6.788;2023-04-07T05:57:07;100847.34;;;17.85;84.56
46955;BME280;32708;51.212;6.788;2023-04-07T05:59:40;100843.47;;;17.13;85.79
46955;BME280;32708;51.212;6.788;2023-04-07T06:02:06;100848.66;;;17.33;84.29
46955;BME280;32708;51.212;6.788;2023-04-07T06:04:33;100827.75;;;18.36;81.66
46955;BME280;32708;51.212;6.788;2023-04-07T06:07:03;100850.50;;;17.84;81.84
46955;BME280;32708;51.212;6.788;2023-04-07T06:09:30;100858.97;;;17.56;83.07
46955;BME280;32708;51.212;6.788;2023-04-07T06:11:56;100856.44;;;17.47;84.92
46955;BME280;32708;51.212;6.788;2023-04-07T06:14:23;100850.50;;;18.07;82.11
46955;BME280;32708;51.212;6.788;2023-04-07T06:16:49;100855.28;;;17.68;82.68
46955;BME280;32708;51.212;6.788;2023-04-07T06:19:15;100871.22;;;16.85;86.61
46955;BME280;32708;51.212;6.788;2023-04-07T06:21:42;100860.50;;;17.15;86.51
46955;BME280;32708;51.212;6.788;2023-04-07T06:24:11;100871.69;;;17.06;87.91
46955;BME280;32708;51.212;6.788;2023-04-07T06:26:40;100853.69;;;17.47;86.74
46955;BME280;32708;51.212;6.788;2023-04-07T06:29:22;100863.94;;;17.12;87.55
46955;BME280;32708;51.212;6.788;2023-04-07T06:31:52;100869.97;;;16.82;88.77
46955;BME280;32708;51.212;6.788;2023-04-07T06:34:29;100861.16;;;17.47;84.89
46955;BME280;32708;51.212;6.788;2023-04-07T06:37:08;100883.69;;;17.49;84.80
46955;BME280;32708;51.212;6.788;2023-04-07T06:39:36;100880.59;;;17.15;86.75
46955;BME280;32708;51.212;6.788;2023-04-07T06:42:18;100879.44;;;18.13;81.96
46955;BME280;32708;51.212;6.788;2023-04-07T06:44:53;100880.44;;;17.82;84.23
46955;BME280;32708;51.212;6.788;2023-04-07T06:47:19;100885.22;;;17.46;85.10
46955;BME280;32708;51.212;6.788;2023-04-07T06:49:46;100881.78;;;18.11;83.92
46955;BME280;32708;51.212;6.788;2023-04-07T06:52:15;100873.81;;;18.52;80.68
46955;BME280;32708;51.212;6.788;2023-04-07T06:54:41;100889.91;;;18.00;80.74
46955;BME280;32708;51.212;6.788;2023-04-07T06:57:08;100890.84;;;18.31;80.32
46955;BME280;32708;51.212;6.788;2023-04-07T06:59:38;100889.22;;;18.98;77.74
46955;BME280;32708;51.212;6.788;2023-04-07T07:02:04;100900.38;;;18.14;80.53
46955;BME280;32708;51.212;6.788;2023-04-07T07:04:34;100899.19;;;17.92;81.71
46955;BME280;32708;51.212;6.788;2023-04-07T07:07:00;100894.53;;;18.38;79.61
46955;BME280;32708;51.212;6.788;2023-04-07T07:09:32;100899.03;;;17.66;83.75
46955;BME280;32708;51.212;6.788;2023-04-07T07:11:58;100902.41;;;17.75;81.79
46955;BME280;32708;51.212;6.788;2023-04-07T07:14:28;100911.72;;;17.86;83.31
46955;BME280;32708;51.212;6.788;2023-04-07T07:16:54;100907.44;;;18.11;80.95
46955;BME280;32708;51.212;6.788;2023-04-07T07:19:23;100893.34;;;18.17;80.75
46955;BME280;32708;51.212;6.788;2023-04-07T07:21:51;100898.72;;;17.51;83.06
46955;BME280;32708;51.212;6.788;2023-04-07T07:24:44;100910.59;;;18.10;81.53
46955;BME280;32708;51.212;6.788;2023-04-07T07:27:11;100911.66;;;17.47;82.18
46955;BME280;32708;51.212;6.788;2023-04-07T07:30:05;100918.13;;;17.55;84.33
46955;BME280;32708;51.212;6.788;2023-04-07T07:32:50;100920.88;;;18.32;80.31
46955;BME280;32708;51.212;6.788;2023-04-07T07:35:23;100919.19;;;18.28;80.25
46955;BME280;32708;51.212;6.788;2023-04-07T07:37:54;100918.13;;;17.55;82.79
46955;BME280;32708;51.212;6.788;2023-04-07T07:40:27;100919.06;;;17.63;82.59
46955;BME280;32708;51.212;6.788;2023-04-07T07:43:18;100919.31;;;17.93;83.49
46955;BME280;32708;51.212;6.788;2023-04-07T07:45:53;100920.44;;;18.30;80.81
46955;BME280;32708;51.212;6.788;2023-04-07T07:48:29;100908.38;;;18.19;80.93
46955;BME280;32708;51.212;6.788;2023-04-07T07:50:56;100919.47;;;18.42;79.80
46955;BME280;32708;51.212;6.788;2023-04-07T07:53:25;100930.81;;;18.79;77.81
46955;BME280;32708;51.212;6.788;2023-04-07T07:55:52;100945.31;;;18.30;80.59
46955;BME280;32708;51.212;6.788;2023-04-07T07:58:24;100933.09;;;18.74;79.98
46955;BME280;32708;51.212;6.788;2023-04-07T08:00:52;100936.19;;;18.49;80.03
46955;BME280;32708;51.212;6.788;2023-04-07T08:03:30;100931.47;;;17.88;82.21
46955;BME280;32708;51.212;6.788;2023-04-07T08:05:57;100957.09;;;17.69;83.82
46955;BME280;32708;51.212;6.788;2023-04-07T08:08:24;100949.13;;;17.83;83.71
46955;BME280;32708;51.212;6.788;2023-04-07T08:10:50;100941.69;;;18.07;81.56
46955;BME280;32708;51.212;6.788;2023-04-07T08:13:16;100964.34;;;17.93;82.31
46955;BME280;32708;51.212;6.788;2023-04-07T08:15:42;100958.63;;;18.44;81.94
46955;BME280;32708;51.212;6.788;2023-04-07T08:18:09;100956.72;;;18.29;82.40
46955;BME280;32708;51.212;6.788;2023-04-07T08:20:35;100950.28;;;17.82;81.97
46955;BME280;32708;51.212;6.788;2023-04-07T08:23:02;100960.75;;;18.54;81.43
46955;BME280;32708;51.212;6.788;2023-04-07T08:25:29;100954.63;;;19.10;76.69
46955;BME280;32708;51.212;6.788;2023-04-07T08:27:59;100962.06;;;18.37;81.00
46955;BME280;32708;51.212;6.788;2023-04-07T08:30:25;100963.53;;;18.54;80.89
46955;BME280;32708;51.212;6.788;2023-04-07T08:32:52;100974.84;;;18.26;81.45
46955;BME280;32708;51.212;6.788;2023-04-07T08:35:18;100976.41;;;18.24;79.28
46955;BME280;32708;51.212;6.788;2023-04-07T08:37:44;100969.44;;;18.53;80.12
46955;BME280;32708;51.212;6.788;2023-04-07T08:40:11;100978.00;;;18.25;79.67
46955;BME280;32708;51.212;6.788;2023-04-07T08:42:42;100971.31;;;18.91;76.94
46955;BME280;32708;51.212;6.788;2023-04-07T08:45:09;100977.44;;;19.04;77.24
46955;BME280;32708;51.212;6.788;2023-04-07T08:47:36;100977.25;;;19.16;76.11
46955;BME280;32708;51.212;6.788;2023-04-07T08:50:09;100984.59;;;18.82;76.81
46955;BME280;32708;51.212;6.788;2023-04-07T08:52:56;100989.63;;;18.57;77.24
46955;BME280;32708;51.212;6.788;2023-04-07T08:55:25;100994.03;;;18.58;78.34
46955;BME280;32708;51.212;6.788;2023-04-07T08:57:58;100993.84;;;18.08;81.01
46955;BME280;32708;51.212;6.788;2023-04-07T09:00:26;101001.78;;;18.10;81.03
46955;BME280;32708;51.212;6.788;2023-04-07T09:02:53;101007.13;;;18.41;80.87
46955;BME280;32708;51.212;6.788;2023-04-07T09:05:21;101005.41;;;18.33;81.02
46955;BME280;32708;51.212;6.788;2023-04-07T09:07:49;100997.34;;;18.25;80.19
46955;BME280;32708;51.212;6.788;2023-04-07T09:10:16;100993.97;;;17.77;83.32
46955;BME280;32708;51.212;6.788;2023-04-07T09:12:42;101004.88;;;18.28;81.25
46955;BME280;32708;51.212;6.788;2023-04-07T09:15:09;101006.78;;;17.69;81.98
46955;BME280;32708;51.212;6.788;2023-04-07T09:17:35;101003.97;;;17.66;83.68
46955;BME280;32708;51.212;6.788;2023-04-07T09:20:03;101013.88;;;17.51;84.51
46955;BME280;32708;51.212;6.788;2023-04-07T09:22:41;101010.59;;;18.15;82.03
46955;BME280;32708;51.212;6.788;2023-04-07T09:25:15;101006.69;;;17.81;82.29
46955;BME280;32708;51.212;6.788;2023-04-07T09:28:03;101012.75;;;18.26;82.31
46955;BME280;32708;51.212;6.788;2023-04-07T09:30:32;101010.28;;;18.21;81.47
46955;BME280;32708;51.212;6.788;2023-04-07T09:33:01;101010.41;;;18.66;79.91
46955;BME280;32708;51.212;6.788;2023-04-07T09:35:30;101016.06;;;18.54;80.41
46955;BME280;32708;51.212;6.788;2023-04-07T09:38:15;101023.59;;;18.15;83.89
46955;BME280;32708;51.212;6.788;2023-04-07T09:40:41;101020.69;;;18.08;84.24
46955;BME280;32708;51.212;6.788;2023-04-07T09:43:16;101015.16;;;17.38;86.39
46955;BME280;32708;51.212;6.788;2023-04-07T09:45:42;101020.03;;;17.44;86.22
46955;BME280;32708;51.212;6.788;2023-04-07T09:48:19;101021.25;;;17.98;82.08
46955;BME280;32708;51.212;6.788;2023-04-07T09:50:47;101029.53;;;18.56;81.46
46955;BME280;32708;51.212;6.788;2023-04-07T09:53:17;101016.00;;;18.70;79.17
46955;BME280;32708;51.212;6.788;2023-04-07T09:56:07;101021.47;;;18.28;80.32
46955;BME280;32708;51.212;6.788;2023-04-07T09:59:18;101018.78;;;19.16;75.36
46955;BME280;32708;51.212;6.788;2023-04-07T10:02:28;101025.13;;;18.32;79.33
46955;BME280;32708;51.212;6.788;2023-04-07T10:05:10;101015.78;;;18.40;76.50
46955;BME280;32708;51.212;6.788;2023-04-07T10:08:09;101012.44;;;18.92;75.21
46955;BME280;32708;51.212;6.788;2023-04-07T10:10:40;101011.94;;;18.45;76.97
46955;BME280;32708;51.212;6.788;2023-04-07T10:13:20;101006.91;;;18.92;73.42
46955;BME280;32708;51.212;6.788;2023-04-07T10:15:56;101006.31;;;18.60;74.87
46955;BME280;32708;51.212;6.788;2023-04-07T10:18:36;101011.34;;;18.74;74.40
46955;BME280;32708;51.212;6.788;2023-04-07T10:21:06;101003.34;;;19.41;71.81
46955;BME280;32708;51.212;6.788;2023-04-07T10:27:18;101032.72;;;17.80;76.97
46955;BME280;32708;51.212;6.788;2023-04-07T10:29:50;101034.16;;;18.90;74.49
46955;BME280;32708;51.212;6.788;2023-04-07T10:32:49;101034.66;;;18.15;76.14
46955;BME280;32708;51.212;6.788;2023-04-07T10:35:20;101020.69;;;17.57;77.32
46955;BME280;32708;51.212;6.788;2023-04-07T10:38:10;101039.66;;;18.09;76.67
46955;BME280;32708;51.212;6.788;2023-04-07T10:40:42;101037.47;;;18.19;74.92
46955;BME280;32708;51.212;6.788;2023-04-07T10:43:10;101046.34;;;18.28;75.95
46955;BME280;32708;51.212;6.788;2023-04-07T10:48:18;101045.69;;;18.34;75.71
46955;BME280;32708;51.212;6.788;2023-04-07T10:53:37;101033.38;;;18.70;75.31
46955;BME280;32708;51.212;6.788;2023-04-07T10:56:04;101047.00;;;19.25;73.36
46955;BME280;32708;51.212;6.788;2023-04-07T10:58:31;101041.16;;;19.30;71.74
46955;BME280;32708;51.212;6.788;2023-04-07T11:03:39;101043.44;;;19.02;72.36
46955;BME280;32708;51.212;6.788;2023-04-07T11:06:10;101041.72;;;18.93;74.63
46955;BME280;32708;51.212;6.788;2023-04-07T11:08:46;101042.63;;;19.24;71.30
46955;BME280;32708;51.212;6.788;2023-04-07T11:11:20;101033.44;;;19.66;69.90
46955;BME280;32708;51.212;6.788;2023-04-07T11:13:59;101038.00;;;20.11;68.77
46955;BME280;32708;51.212;6.788;2023-04-07T11:16:39;101038.13;;;20.52;68.02
46955;BME280;32708;51.212;6.788;2023-04-07T11:19:07;101050.63;;;19.29;71.09
46955;BME280;32708;51.212;6.788;2023-04-07T11:21:33;101056.63;;;19.84;69.35
46955;BME280;32708;51.212;6.788;2023-04-07T11:24:01;101057.50;;;19.39;70.47
46955;BME280;32708;51.212;6.788;2023-04-07T11:26:29;101064.41;;;19.03;71.36
46955;BME280;32708;51.212;6.788;2023-04-07T11:29:01;101056.53;;;19.05;72.28
46955;BME280;32708;51.212;6.788;2023-04-07T11:31:29;101052.72;;;19.13;70.27
46955;BME280;32708;51.212;6.788;2023-04-07T11:34:00;101047.59;;;19.87;68.95
46955;BME280;32708;51.212;6.788;2023-04-07T11:36:38;101045.22;;;20.49;66.42
46955;BME280;32708;51.212;6.788;2023-04-07T11:39:19;101049.41;;;20.36;66.49
46955;BME280;32708;51.212;6.788;2023-04-07T11:41:53;101051.19;;;19.91;67.08
46955;BME280;32708;51.212;6.788;2023-04-07T11:44:20;101069.81;;;19.18;70.65
46955;BME280;32708;51.212;6.788;2023-04-07T11:47:01;101065.09;;;19.95;67.29
46955;BME280;32708;51.212;6.788;2023-04-07T11:49:29;101067.34;;;18.90;70.20
46955;BME280;32708;51.212;6.788;2023-04-07T11:52:02;101083.78;;;19.03;70.73
46955;BME280;32708;51.212;6.788;2023-04-07T11:54:45;101074.69;;;19.25;68.93
46955;BME280;32708;51.212;6.788;2023-04-07T11:57:13;101070.78;;;20.05;68.46
46955;BME280;32708;51.212;6.788;2023-04-07T11:59:40;101073.06;;;19.47;68.31
46955;BME280;32708;51.212;6.788;2023-04-07T12:02:06;101067.63;;;20.67;64.75
46955;BME280;32708;51.212;6.788;2023-04-07T12:04:33;101073.06;;;20.00;66.91
46955;BME280;32708;51.212;6.788;2023-04-07T12:07:10;101079.00;;;20.96;64.26
46955;BME280;32708;51.212;6.788;2023-04-07T12:09:37;101082.34;;;20.41;65.08
46955;BME280;32708;51.212;6.788;2023-04-07T12:12:06;101076.13;;;20.85;64.02
46955;BME280;32708;51.212;6.788;2023-04-07T12:14:34;101081.47;;;21.04;63.42
46955;BME280;32708;51.212;6.788;2023-04-07T12:17:00;101080.00;;;21.62;62.25
46955;BME280;32708;51.212;6.788;2023-04-07T12:19:30;101089.34;;;20.01;64.77
46955;BME280;32708;51.212;6.788;2023-04-07T12:22:00;101093.78;;;19.57;67.45
46955;BME280;32708;51.212;6.788;2023-04-07T12:24:26;101090.94;;;20.32;64.98
46955;BME280;32708;51.212;6.788;2023-04-07T12:26:56;101092.25;;;20.42;65.26
46955;BME280;32708;51.212;6.788;2023-04-07T12:29:23;101096.06;;;21.35;62.46
46955;BME280;32708;51.212;6.788;2023-04-07T12:31:49;101095.53;;;20.81;62.76
46955;BME280;32708;51.212;6.788;2023-04-07T12:34:15;101096.00;;;20.91;62.97
46955;BME280;32708;51.212;6.788;2023-04-07T12:36:42;101106.00;;;20.61;63.30
46955;BME280;32708;51.212;6.788;2023-04-07T12:39:08;101092.66;;;21.11;61.38
46955;BME280;32708;51.212;6.788;2023-04-07T12:41:35;101096.50;;;20.32;63.62
46955;BME280;32708;51.212;6.788;2023-04-07T12:44:03;101100.56;;;20.12;63.95
46955;BME280;32708;51.212;6.788;2023-04-07T12:46:29;101101.53;;;20.87;61.02
46955;BME280;32708;51.212;6.788;2023-04-07T12:48:55;101111.06;;;20.56;63.51
46955;BME280;32708;51.212;6.788;2023-04-07T12:51:22;101118.50;;;19.65;65.12
46955;BME280;32708;51.212;6.788;2023-04-07T12:53:48;101111.47;;;19.98;63.64
46955;BME280;32708;51.212;6.788;2023-04-07T12:56:14;101111.53;;;20.01;63.89
46955;BME280;32708;51.212;6.788;2023-04-07T12:58:40;101118.34;;;20.68;61.64
46955;BME280;32708;51.212;6.788;2023-04-07T13:01:07;101106.13;;;20.12;62.54
46955;BME280;32708;51.212;6.788;2023-04-07T13:03:35;101101.88;;;19.65;63.88
46955;BME280;32708;51.212;6.788;2023-04-07T13:06:02;101119.47;;;20.33;64.10
46955;BME280;32708;51.212;6.788;2023-04-07T13:08:29;101109.53;;;20.58;62.12
46955;BME280;32708;51.212;6.788;2023-04-07T13:10:56;101109.88;;;20.53;62.52
46955;BME280;32708;51.212;6.788;2023-04-07T13:13:23;101108.69;;;20.54;61.04
46955;BME280;32708;51.212;6.788;2023-04-07T13:15:49;101116.41;;;20.42;61.91
46955;BME280;32708;51.212;6.788;2023-04-07T13:18:16;101108.56;;;21.18;60.29
46955;BME280;32708;51.212;6.788;2023-04-07T13:20:42;101107.72;;;21.10;61.21
46955;BME280;32708;51.212;6.788;2023-04-07T13:23:08;101104.75;;;20.93;61.44
46955;BME280;32708;51.212;6.788;2023-04-07T13:25:38;101107.16;;;20.30;62.41